sensor_id;sensor_type;location;lat;lon;timestamp;P1;durP1;ratioP1;P2;durP2;ratioP2
4365;SDS011;2196;47.422;9.656;2022-07-11T00:01:48;0.93;;;0.70;;
4365;SDS011;2196;47.422;9.656;2022-07-11T00:04:15;0.87;;;0.63;;
4365;SDS011;2196;47.422;9.656;2022-07-11T00:06:42;1.03;;;0.60;;
4365;SDS011;2196;47.422;9.656;2022-07-11T00:09:09;0.40;;;0.40;;
4365;SDS011;2196;47.422;9.656;2022-07-11T00:11:36;1.23;;;0.60;;
4365;SDS011;2196;47.422;9.656;2022-07-11T00:14:05;0.40;;;0.40;;
4365;SDS011;2196;47.422;9.656;2022-07-11T00:16:32;0.40;;;0.40;;
4365;SDS011;2196;47.422;9.656;2022-07-11T00:18:59;0.87;;;0.33;;
4365;SDS011;2196;47.422;9.656;2022-07-11T00:21:26;0.43;;;0.43;;
4365;SDS011;2196;47.422;9.656;2022-07-11T00:23:53;1.23;;;0.60;;
4365;SDS011;2196;47.422;9.656;2022-07-11T00:26:20;1.53;;;0.70;;
4365;SDS011;2196;47.422;9.656;2022-07-11T00:28:47;1.50;;;0.60;;
4365;SDS011;2196;47.422;9.656;2022-07-11T00:31:16;3.30;;;0.40;;
4365;SDS011;2196;47.422;9.656;2022-07-11T00:33:43;0.50;;;0.50;;
4365;SDS011;2196;47.422;9.656;2022-07-11T00:36:10;0.77;;;0.50;;
4365;SDS011;2196;47.422;9.656;2022-07-11T00:38:38;0.87;;;0.40;;
4365;SDS011;2196;47.422;9.656;2022-07-11T00:41:05;0.60;;;0.60;;
4365;SDS011;2196;47.422;9.656;2022-07-11T00:43:33;0.43;;;0.40;;
4365;SDS011;2196;47.422;9.656;2022-07-11T00:46:01;1.00;;;0.50;;
4365;SDS011;2196;47.422;9.656;2022-07-11T00:48:30;0.93;;;0.53;;
4365;SDS011;2196;47.422;9.656;2022-07-11T00:50:57;0.97;;;0.50;;
4365;SDS011;2196;47.422;9.656;2022-07-11T00:53:25;1.27;;;0.40;;
4365;SDS011;2196;47.422;9.656;2022-07-11T00:55:53;0.50;;;0.50;;
4365;SDS011;2196;47.422;9.656;2022-07-11T00:58:20;0.63;;;0.53;;
4365;SDS011;2196;47.422;9.656;2022-07-11T01:00:49;0.40;;;0.40;;
4365;SDS011;2196;47.422;9.656;2022-07-11T01:03:18;1.60;;;0.70;;
4365;SDS011;2196;47.422;9.656;2022-07-11T01:05:46;0.53;;;0.40;;
4365;SDS011;2196;47.422;9.656;2022-07-11T01:08:13;0.80;;;0.53;;
4365;SDS011;2196;47.422;9.656;2022-07-11T01:10:41;1.50;;;0.57;;
4365;SDS011;2196;47.422;9.656;2022-07-11T01:13:11;1.30;;;0.40;;
4365;SDS011;2196;47.422;9.656;2022-07-11T01:15:38;2.50;;;0.70;;
4365;SDS011;2196;47.422;9.656;2022-07-11T01:18:05;0.83;;;0.60;;
4365;SDS011;2196;47.422;9.656;2022-07-11T01:20:32;2.60;;;0.80;;
4365;SDS011;2196;47.422;9.656;2022-07-11T01:23:02;1.00;;;0.43;;
4365;SDS011;2196;47.422;9.656;2022-07-11T01:25:29;0.93;;;0.50;;
4365;SDS011;2196;47.422;9.656;2022-07-11T01:27:56;1.40;;;0.53;;
4365;SDS011;2196;47.422;9.656;2022-07-11T01:30:24;0.40;;;0.30;;
4365;SDS011;2196;47.422;9.656;2022-07-11T01:32:51;0.87;;;0.50;;
4365;SDS011;2196;47.422;9.656;2022-07-11T01:35:18;0.90;;;0.50;;
4365;SDS011;2196;47.422;9.656;2022-07-11T01:37:46;0.40;;;0.40;;
4365;SDS011;2196;47.422;9.656;2022-07-11T01:40:15;0.50;;;0.33;;
4365;SDS011;2196;47.422;9.656;2022-07-11T01:42:42;1.80;;;0.67;;
4365;SDS011;2196;47.422;9.656;2022-07-11T01:45:10;1.33;;;0.70;;
4365;SDS011;2196;47.422;9.656;2022-07-11T01:47:38;0.50;;;0.40;;
4365;SDS011;2196;47.422;9.656;2022-07-11T01:50:05;0.77;;;0.50;;
4365;SDS011;2196;47.422;9.656;2022-07-11T01:52:33;1.33;;;0.57;;
4365;SDS011;2196;47.422;9.656;2022-07-11T01:55:00;0.47;;;0.47;;
4365;SDS011;2196;47.422;9.656;2022-07-11T01:57:28;0.50;;;0.50;;
4365;SDS011;2196;47.422;9.656;2022-07-11T01:59:55;0.50;;;0.50;;
4365;SDS011;2196;47.422;9.656;2022-07-11T02:02:22;0.80;;;0.80;;
4365;SDS011;2196;47.422;9.656;2022-07-11T02:04:49;1.80;;;1.07;;
4365;SDS011;2196;47.422;9.656;2022-07-11T02:07:16;0.70;;;0.70;;
4365;SDS011;2196;47.422;9.656;2022-07-11T02:10:03;0.60;;;0.60;;
4365;SDS011;2196;47.422;9.656;2022-07-11T02:12:32;1.83;;;0.80;;
4365;SDS011;2196;47.422;9.656;2022-07-11T02:14:59;0.57;;;0.50;;
4365;SDS011;2196;47.422;9.656;2022-07-11T02:17:26;0.70;;;0.67;;
4365;SDS011;2196;47.422;9.656;2022-07-11T02:19:53;0.90;;;0.50;;
4365;SDS011;2196;47.422;9.656;2022-07-11T02:22:20;0.60;;;0.60;;
4365;SDS011;2196;47.422;9.656;2022-07-11T02:24:47;0.93;;;0.63;;
4365;SDS011;2196;47.422;9.656;2022-07-11T02:27:14;0.97;;;0.70;;
4365;SDS011;2196;47.422;9.656;2022-07-11T02:29:43;0.63;;;0.63;;
4365;SDS011;2196;47.422;9.656;2022-07-11T02:32:10;1.07;;;0.67;;
4365;SDS011;2196;47.422;9.656;2022-07-11T02:34:37;5.00;;;0.80;;
4365;SDS011;2196;47.422;9.656;2022-07-11T02:37:04;0.50;;;0.50;;
4365;SDS011;2196;47.422;9.656;2022-07-11T02:39:31;0.70;;;0.70;;
4365;SDS011;2196;47.422;9.656;2022-07-11T02:41:58;1.30;;;0.50;;
4365;SDS011;2196;47.422;9.656;2022-07-11T02:44:25;0.53;;;0.53;;
4365;SDS011;2196;47.422;9.656;2022-07-11T02:46:54;0.63;;;0.63;;
4365;SDS011;2196;47.422;9.656;2022-07-11T02:49:21;0.70;;;0.70;;
4365;SDS011;2196;47.422;9.656;2022-07-11T02:51:48;1.20;;;0.80;;
4365;SDS011;2196;47.422;9.656;2022-07-11T02:54:15;1.30;;;0.80;;
4365;SDS011;2196;47.422;9.656;2022-07-11T02:56:43;2.03;;;1.23;;
4365;SDS011;2196;47.422;9.656;2022-07-11T02:59:11;1.73;;;1.20;;
4365;SDS011;2196;47.422;9.656;2022-07-11T03:01:38;1.00;;;1.00;;
4365;SDS011;2196;47.422;9.656;2022-07-11T03:04:07;2.67;;;0.60;;
4365;SDS011;2196;47.422;9.656;2022-07-11T03:06:35;1.00;;;0.70;;
4365;SDS011;2196;47.422;9.656;2022-07-11T03:09:03;1.17;;;1.17;;
4365;SDS011;2196;47.422;9.656;2022-07-11T03:11:30;1.80;;;0.70;;
4365;SDS011;2196;47.422;9.656;2022-07-11T03:13:57;2.40;;;1.13;;
4365;SDS011;2196;47.422;9.656;2022-07-11T03:16:25;0.80;;;0.80;;
4365;SDS011;2196;47.422;9.656;2022-07-11T03:18:53;0.70;;;0.70;;
4365;SDS011;2196;47.422;9.656;2022-07-11T03:21:21;1.43;;;1.23;;
4365;SDS011;2196;47.422;9.656;2022-07-11T03:23:49;0.63;;;0.63;;
4365;SDS011;2196;47.422;9.656;2022-07-11T03:26:16;1.53;;;1.17;;
4365;SDS011;2196;47.422;9.656;2022-07-11T03:28:43;0.70;;;0.70;;
4365;SDS011;2196;47.422;9.656;2022-07-11T03:31:10;0.83;;;0.83;;
4365;SDS011;2196;47.422;9.656;2022-07-11T03:33:37;2.10;;;0.80;;
4365;SDS011;2196;47.422;9.656;2022-07-11T03:36:04;1.80;;;1.10;;
4365;SDS011;2196;47.422;9.656;2022-07-11T03:38:33;1.13;;;0.83;;
4365;SDS011;2196;47.422;9.656;2022-07-11T03:41:00;0.77;;;0.77;;
4365;SDS011;2196;47.422;9.656;2022-07-11T03:43:27;1.60;;;0.80;;
4365;SDS011;2196;47.422;9.656;2022-07-11T03:45:54;1.90;;;1.30;;
4365;SDS011;2196;47.422;9.656;2022-07-11T03:48:21;1.90;;;1.00;;
4365;SDS011;2196;47.422;9.656;2022-07-11T03:50:49;2.10;;;1.00;;
4365;SDS011;2196;47.422;9.656;2022-07-11T03:53:16;1.57;;;1.13;;
4365;SDS011;2196;47.422;9.656;2022-07-11T03:55:44;3.27;;;1.20;;
4365;SDS011;2196;47.422;9.656;2022-07-11T03:58:11;1.50;;;1.40;;
4365;SDS011;2196;47.422;9.656;2022-07-11T04:00:38;1.00;;;1.00;;
4365;SDS011;2196;47.422;9.656;2022-07-11T04:03:05;1.10;;;1.10;;
4365;SDS011;2196;47.422;9.656;2022-07-11T04:05:32;1.20;;;1.20;;
4365;SDS011;2196;47.422;9.656;2022-07-11T04:07:59;1.43;;;1.33;;
4365;SDS011;2196;47.422;9.656;2022-07-11T04:10:26;1.70;;;1.60;;
4365;SDS011;2196;47.422;9.656;2022-07-11T04:12:54;1.20;;;1.20;;
4365;SDS011;2196;47.422;9.656;2022-07-11T04:15:21;1.10;;;1.10;;
4365;SDS011;2196;47.422;9.656;2022-07-11T04:17:48;1.47;;;1.47;;
4365;SDS011;2196;47.422;9.656;2022-07-11T04:20:15;1.30;;;1.30;;
4365;SDS011;2196;47.422;9.656;2022-07-11T04:22:42;1.30;;;1.13;;
4365;SDS011;2196;47.422;9.656;2022-07-11T04:25:09;1.47;;;1.23;;
4365;SDS011;2196;47.422;9.656;2022-07-11T04:27:36;1.60;;;1.50;;
4365;SDS011;2196;47.422;9.656;2022-07-11T04:30:05;1.20;;;1.20;;
4365;SDS011;2196;47.422;9.656;2022-07-11T04:32:33;1.53;;;1.43;;
4365;SDS011;2196;47.422;9.656;2022-07-11T04:35:01;4.03;;;1.63;;
4365;SDS011;2196;47.422;9.656;2022-07-11T04:37:28;1.57;;;1.47;;
4365;SDS011;2196;47.422;9.656;2022-07-11T04:39:55;1.70;;;1.60;;
4365;SDS011;2196;47.422;9.656;2022-07-11T04:42:22;1.20;;;1.10;;
4365;SDS011;2196;47.422;9.656;2022-07-11T04:44:49;1.07;;;1.07;;
4365;SDS011;2196;47.422;9.656;2022-07-11T04:47:17;3.27;;;1.17;;
4365;SDS011;2196;47.422;9.656;2022-07-11T04:49:45;1.33;;;1.23;;
4365;SDS011;2196;47.422;9.656;2022-07-11T04:52:12;1.13;;;0.90;;
4365;SDS011;2196;47.422;9.656;2022-07-11T04:54:39;1.50;;;1.33;;
4365;SDS011;2196;47.422;9.656;2022-07-11T04:57:06;2.07;;;0.90;;
4365;SDS011;2196;47.422;9.656;2022-07-11T04:59:33;1.30;;;1.20;;
4365;SDS011;2196;47.422;9.656;2022-07-11T05:02:01;1.23;;;1.03;;
4365;SDS011;2196;47.422;9.656;2022-07-11T05:04:29;1.60;;;1.00;;
4365;SDS011;2196;47.422;9.656;2022-07-11T05:06:56;0.60;;;0.60;;
4365;SDS011;2196;47.422;9.656;2022-07-11T05:09:23;3.07;;;1.90;;
4365;SDS011;2196;47.422;9.656;2022-07-11T05:11:50;2.40;;;1.13;;
4365;SDS011;2196;47.422;9.656;2022-07-11T05:14:17;1.23;;;1.23;;
4365;SDS011;2196;47.422;9.656;2022-07-11T05:16:44;1.33;;;1.23;;
4365;SDS011;2196;47.422;9.656;2022-07-11T05:19:11;1.47;;;1.23;;
4365;SDS011;2196;47.422;9.656;2022-07-11T05:21:39;1.90;;;0.90;;
4365;SDS011;2196;47.422;9.656;2022-07-11T05:24:06;1.23;;;1.23;;
4365;SDS011;2196;47.422;9.656;2022-07-11T05:26:34;1.83;;;1.27;;
4365;SDS011;2196;47.422;9.656;2022-07-11T05:29:01;2.83;;;0.70;;
4365;SDS011;2196;47.422;9.656;2022-07-11T05:31:28;2.40;;;1.10;;
4365;SDS011;2196;47.422;9.656;2022-07-11T05:33:58;1.00;;;0.97;;
4365;SDS011;2196;47.422;9.656;2022-07-11T05:36:25;0.83;;;0.83;;
4365;SDS011;2196;47.422;9.656;2022-07-11T05:38:53;4.63;;;0.90;;
4365;SDS011;2196;47.422;9.656;2022-07-11T05:41:20;7.33;;;1.00;;
4365;SDS011;2196;47.422;9.656;2022-07-11T05:43:47;0.83;;;0.80;;
4365;SDS011;2196;47.422;9.656;2022-07-11T05:46:14;1.13;;;0.80;;
4365;SDS011;2196;47.422;9.656;2022-07-11T05:48:41;0.70;;;0.70;;
4365;SDS011;2196;47.422;9.656;2022-07-11T05:51:09;0.93;;;0.80;;
4365;SDS011;2196;47.422;9.656;2022-07-11T05:53:36;2.43;;;0.80;;
4365;SDS011;2196;47.422;9.656;2022-07-11T05:56:05;1.97;;;0.70;;
4365;SDS011;2196;47.422;9.656;2022-07-11T05:58:32;1.60;;;0.90;;
4365;SDS011;2196;47.422;9.656;2022-07-11T06:00:59;1.30;;;0.80;;
4365;SDS011;2196;47.422;9.656;2022-07-11T06:03:26;1.37;;;0.90;;
4365;SDS011;2196;47.422;9.656;2022-07-11T06:05:53;1.63;;;0.85;;
4365;SDS011;2196;47.422;9.656;2022-07-11T06:08:20;1.67;;;1.20;;
4365;SDS011;2196;47.422;9.656;2022-07-11T06:11:06;0.50;;;0.40;;
4365;SDS011;2196;47.422;9.656;2022-07-11T06:13:35;5.38;;;1.08;;
4365;SDS011;2196;47.422;9.656;2022-07-11T06:16:03;1.08;;;0.70;;
4365;SDS011;2196;47.422;9.656;2022-07-11T06:18:30;1.83;;;0.80;;
4365;SDS011;2196;47.422;9.656;2022-07-11T06:20:57;0.80;;;0.80;;
4365;SDS011;2196;47.422;9.656;2022-07-11T06:23:24;2.50;;;1.40;;
4365;SDS011;2196;47.422;9.656;2022-07-11T06:25:51;1.55;;;0.77;;
4365;SDS011;2196;47.422;9.656;2022-07-11T06:28:19;2.97;;;0.63;;
4365;SDS011;2196;47.422;9.656;2022-07-11T06:30:46;1.10;;;0.68;;
4365;SDS011;2196;47.422;9.656;2022-07-11T06:33:14;2.42;;;0.65;;
4365;SDS011;2196;47.422;9.656;2022-07-11T06:35:41;1.15;;;0.60;;
4365;SDS011;2196;47.422;9.656;2022-07-11T06:38:09;2.60;;;0.55;;
4365;SDS011;2196;47.422;9.656;2022-07-11T06:40:40;1.13;;;1.02;;
4365;SDS011;2196;47.422;9.656;2022-07-11T06:43:07;0.75;;;0.60;;
4365;SDS011;2196;47.422;9.656;2022-07-11T06:45:36;0.95;;;0.68;;
4365;SDS011;2196;47.422;9.656;2022-07-11T06:48:04;2.78;;;0.98;;
4365;SDS011;2196;47.422;9.656;2022-07-11T06:50:31;0.60;;;0.60;;
4365;SDS011;2196;47.422;9.656;2022-07-11T06:52:59;1.65;;;0.60;;
4365;SDS011;2196;47.422;9.656;2022-07-11T06:55:26;0.47;;;0.43;;
4365;SDS011;2196;47.422;9.656;2022-07-11T06:57:53;1.15;;;0.95;;
4365;SDS011;2196;47.422;9.656;2022-07-11T07:00:20;0.95;;;0.95;;
4365;SDS011;2196;47.422;9.656;2022-07-11T07:02:48;2.28;;;0.73;;
4365;SDS011;2196;47.422;9.656;2022-07-11T07:05:15;4.85;;;0.88;;
4365;SDS011;2196;47.422;9.656;2022-07-11T07:07:44;0.80;;;0.50;;
4365;SDS011;2196;47.422;9.656;2022-07-11T07:10:11;1.13;;;0.90;;
4365;SDS011;2196;47.422;9.656;2022-07-11T07:12:38;1.77;;;0.70;;
4365;SDS011;2196;47.422;9.656;2022-07-11T07:15:05;1.02;;;0.70;;
4365;SDS011;2196;47.422;9.656;2022-07-11T07:17:34;2.03;;;0.60;;
4365;SDS011;2196;47.422;9.656;2022-07-11T07:20:03;0.88;;;0.88;;
4365;SDS011;2196;47.422;9.656;2022-07-11T07:22:33;0.60;;;0.60;;
4365;SDS011;2196;47.422;9.656;2022-07-11T07:25:01;1.15;;;0.68;;
4365;SDS011;2196;47.422;9.656;2022-07-11T07:27:28;0.80;;;0.70;;
4365;SDS011;2196;47.422;9.656;2022-07-11T07:29:55;3.23;;;1.00;;
4365;SDS011;2196;47.422;9.656;2022-07-11T07:32:22;1.73;;;0.90;;
4365;SDS011;2196;47.422;9.656;2022-07-11T07:34:49;1.30;;;0.73;;
4365;SDS011;2196;47.422;9.656;2022-07-11T07:37:18;1.23;;;0.80;;
4365;SDS011;2196;47.422;9.656;2022-07-11T07:39:45;0.57;;;0.57;;
4365;SDS011;2196;47.422;9.656;2022-07-11T07:42:12;1.13;;;1.03;;
4365;SDS011;2196;47.422;9.656;2022-07-11T07:44:39;1.70;;;0.93;;
4365;SDS011;2196;47.422;9.656;2022-07-11T07:47:07;1.50;;;0.70;;
4365;SDS011;2196;47.422;9.656;2022-07-11T07:49:34;1.10;;;0.57;;
4365;SDS011;2196;47.422;9.656;2022-07-11T07:52:00;3.28;;;1.00;;
4365;SDS011;2196;47.422;9.656;2022-07-11T07:54:29;1.50;;;0.70;;
4365;SDS011;2196;47.422;9.656;2022-07-11T07:56:56;0.80;;;0.80;;
4365;SDS011;2196;47.422;9.656;2022-07-11T07:59:23;0.43;;;0.43;;
4365;SDS011;2196;47.422;9.656;2022-07-11T08:01:50;1.00;;;1.00;;
4365;SDS011;2196;47.422;9.656;2022-07-11T08:04:16;0.70;;;0.60;;
4365;SDS011;2196;47.422;9.656;2022-07-11T08:06:43;1.60;;;1.43;;
4365;SDS011;2196;47.422;9.656;2022-07-11T08:09:10;1.20;;;0.77;;
4365;SDS011;2196;47.422;9.656;2022-07-11T08:11:39;1.10;;;0.97;;
4365;SDS011;2196;47.422;9.656;2022-07-11T08:14:06;2.27;;;0.93;;
4365;SDS011;2196;47.422;9.656;2022-07-11T08:16:33;0.90;;;0.90;;
4365;SDS011;2196;47.422;9.656;2022-07-11T08:19:02;1.23;;;0.90;;
4365;SDS011;2196;47.422;9.656;2022-07-11T08:21:31;1.17;;;0.90;;
4365;SDS011;2196;47.422;9.656;2022-07-11T08:23:59;1.70;;;0.83;;
4365;SDS011;2196;47.422;9.656;2022-07-11T08:26:27;0.60;;;0.60;;
4365;SDS011;2196;47.422;9.656;2022-07-11T08:28:56;1.53;;;0.90;;
4365;SDS011;2196;47.422;9.656;2022-07-11T08:31:23;0.90;;;0.70;;
4365;SDS011;2196;47.422;9.656;2022-07-11T08:33:50;0.70;;;0.70;;
4365;SDS011;2196;47.422;9.656;2022-07-11T08:36:18;1.00;;;0.90;;
4365;SDS011;2196;47.422;9.656;2022-07-11T08:38:45;1.40;;;0.63;;
4365;SDS011;2196;47.422;9.656;2022-07-11T08:41:13;1.90;;;0.60;;
4365;SDS011;2196;47.422;9.656;2022-07-11T08:43:41;0.87;;;0.50;;
4365;SDS011;2196;47.422;9.656;2022-07-11T08:46:10;1.87;;;0.83;;
4365;SDS011;2196;47.422;9.656;2022-07-11T08:48:39;0.57;;;0.50;;
4365;SDS011;2196;47.422;9.656;2022-07-11T08:51:08;1.90;;;0.70;;
4365;SDS011;2196;47.422;9.656;2022-07-11T08:53:38;0.50;;;0.50;;
4365;SDS011;2196;47.422;9.656;2022-07-11T08:56:08;2.33;;;0.50;;
4365;SDS011;2196;47.422;9.656;2022-07-11T08:58:43;2.63;;;0.77;;
4365;SDS011;2196;47.422;9.656;2022-07-11T09:01:14;1.90;;;0.87;;
4365;SDS011;2196;47.422;9.656;2022-07-11T09:03:42;0.52;;;0.52;;
4365;SDS011;2196;47.422;9.656;2022-07-11T09:06:10;1.60;;;0.40;;
4365;SDS011;2196;47.422;9.656;2022-07-11T09:08:37;0.60;;;0.43;;
4365;SDS011;2196;47.422;9.656;2022-07-11T09:11:04;0.50;;;0.50;;
4365;SDS011;2196;47.422;9.656;2022-07-11T09:13:31;0.80;;;0.60;;
4365;SDS011;2196;47.422;9.656;2022-07-11T09:16:03;1.43;;;0.90;;
4365;SDS011;2196;47.422;9.656;2022-07-11T09:18:35;3.10;;;0.50;;
4365;SDS011;2196;47.422;9.656;2022-07-11T09:21:04;1.87;;;0.50;;
4365;SDS011;2196;47.422;9.656;2022-07-11T09:23:50;1.02;;;0.50;;
4365;SDS011;2196;47.422;9.656;2022-07-11T09:26:37;1.33;;;0.50;;
4365;SDS011;2196;47.422;9.656;2022-07-11T09:29:06;1.30;;;0.50;;
4365;SDS011;2196;47.422;9.656;2022-07-11T09:31:35;1.00;;;0.83;;
4365;SDS011;2196;47.422;9.656;2022-07-11T09:34:05;0.50;;;0.50;;
4365;SDS011;2196;47.422;9.656;2022-07-11T09:36:38;9.82;;;0.60;;
4365;SDS011;2196;47.422;9.656;2022-07-11T09:39:08;2.75;;;0.57;;
4365;SDS011;2196;47.422;9.656;2022-07-11T09:41:36;1.65;;;0.47;;
4365;SDS011;2196;47.422;9.656;2022-07-11T09:44:11;2.37;;;0.50;;
4365;SDS011;2196;47.422;9.656;2022-07-11T09:46:39;1.55;;;0.65;;
4365;SDS011;2196;47.422;9.656;2022-07-11T09:49:08;1.45;;;0.52;;
4365;SDS011;2196;47.422;9.656;2022-07-11T09:51:36;1.05;;;0.32;;
4365;SDS011;2196;47.422;9.656;2022-07-11T09:54:05;1.45;;;0.50;;
4365;SDS011;2196;47.422;9.656;2022-07-11T09:56:34;1.95;;;0.50;;
4365;SDS011;2196;47.422;9.656;2022-07-11T09:59:03;1.17;;;0.30;;
4365;SDS011;2196;47.422;9.656;2022-07-11T10:01:31;1.55;;;0.60;;
4365;SDS011;2196;47.422;9.656;2022-07-11T10:03:58;1.05;;;0.50;;
4365;SDS011;2196;47.422;9.656;2022-07-11T10:06:27;0.75;;;0.63;;
4365;SDS011;2196;47.422;9.656;2022-07-11T10:08:54;1.00;;;0.53;;
4365;SDS011;2196;47.422;9.656;2022-07-11T10:11:22;2.07;;;0.40;;
4365;SDS011;2196;47.422;9.656;2022-07-11T10:13:49;1.13;;;0.47;;
4365;SDS011;2196;47.422;9.656;2022-07-11T10:16:20;0.80;;;0.73;;
4365;SDS011;2196;47.422;9.656;2022-07-11T10:18:53;1.50;;;0.77;;
4365;SDS011;2196;47.422;9.656;2022-07-11T10:21:31;0.63;;;0.50;;
4365;SDS011;2196;47.422;9.656;2022-07-11T10:24:12;1.17;;;0.67;;
4365;SDS011;2196;47.422;9.656;2022-07-11T10:26:46;0.97;;;0.50;;
4365;SDS011;2196;47.422;9.656;2022-07-11T10:29:22;1.27;;;0.87;;
4365;SDS011;2196;47.422;9.656;2022-07-11T10:32:04;0.60;;;0.50;;
4365;SDS011;2196;47.422;9.656;2022-07-11T10:34:32;0.50;;;0.50;;
4365;SDS011;2196;47.422;9.656;2022-07-11T10:37:01;2.63;;;0.60;;
4365;SDS011;2196;47.422;9.656;2022-07-11T10:39:29;1.53;;;0.30;;
4365;SDS011;2196;47.422;9.656;2022-07-11T10:41:58;0.73;;;0.50;;
4365;SDS011;2196;47.422;9.656;2022-07-11T10:44:26;2.13;;;0.70;;
4365;SDS011;2196;47.422;9.656;2022-07-11T10:46:54;0.83;;;0.70;;
4365;SDS011;2196;47.422;9.656;2022-07-11T10:49:25;0.40;;;0.40;;
4365;SDS011;2196;47.422;9.656;2022-07-11T10:52:05;1.33;;;0.77;;
4365;SDS011;2196;47.422;9.656;2022-07-11T10:54:37;0.77;;;0.50;;
4365;SDS011;2196;47.422;9.656;2022-07-11T10:57:19;2.08;;;0.40;;
4365;SDS011;2196;47.422;9.656;2022-07-11T10:59:59;1.80;;;0.80;;
4365;SDS011;2196;47.422;9.656;2022-07-11T11:02:27;1.73;;;0.60;;
4365;SDS011;2196;47.422;9.656;2022-07-11T11:04:55;1.50;;;0.60;;
4365;SDS011;2196;47.422;9.656;2022-07-11T11:07:39;2.00;;;0.90;;
4365;SDS011;2196;47.422;9.656;2022-07-11T11:13:13;1.03;;;0.67;;
4365;SDS011;2196;47.422;9.656;2022-07-11T11:15:41;0.70;;;0.70;;
4365;SDS011;2196;47.422;9.656;2022-07-11T11:21:14;1.90;;;0.70;;
4365;SDS011;2196;47.422;9.656;2022-07-11T11:23:45;1.77;;;0.77;;
4365;SDS011;2196;47.422;9.656;2022-07-11T11:26:41;1.17;;;0.80;;
4365;SDS011;2196;47.422;9.656;2022-07-11T11:29:20;0.80;;;0.80;;
4365;SDS011;2196;47.422;9.656;2022-07-11T11:31:53;0.70;;;0.70;;
4365;SDS011;2196;47.422;9.656;2022-07-11T11:34:22;1.40;;;0.53;;
4365;SDS011;2196;47.422;9.656;2022-07-11T11:36:57;1.70;;;0.70;;
4365;SDS011;2196;47.422;9.656;2022-07-11T11:39:31;1.00;;;0.80;;
4365;SDS011;2196;47.422;9.656;2022-07-11T11:42:06;1.20;;;0.77;;
4365;SDS011;2196;47.422;9.656;2022-07-11T11:44:46;2.50;;;0.70;;
4365;SDS011;2196;47.422;9.656;2022-07-11T11:47:17;1.33;;;0.73;;
4365;SDS011;2196;47.422;9.656;2022-07-11T11:49:45;0.50;;;0.50;;
4365;SDS011;2196;47.422;9.656;2022-07-11T11:52:14;1.67;;;1.03;;
4365;SDS011;2196;47.422;9.656;2022-07-11T11:54:43;1.20;;;0.97;;
4365;SDS011;2196;47.422;9.656;2022-07-11T11:57:16;2.43;;;0.80;;
4365;SDS011;2196;47.422;9.656;2022-07-11T11:59:46;1.27;;;0.70;;
4365;SDS011;2196;47.422;9.656;2022-07-11T12:02:20;0.60;;;0.60;;
4365;SDS011;2196;47.422;9.656;2022-07-11T12:04:47;0.57;;;0.47;;
4365;SDS011;2196;47.422;9.656;2022-07-11T12:07:20;1.13;;;1.07;;
4365;SDS011;2196;47.422;9.656;2022-07-11T12:09:51;1.20;;;0.70;;
4365;SDS011;2196;47.422;9.656;2022-07-11T12:12:21;2.17;;;0.80;;
4365;SDS011;2196;47.422;9.656;2022-07-11T12:15:21;0.87;;;0.77;;
4365;SDS011;2196;47.422;9.656;2022-07-11T12:17:51;1.13;;;0.87;;
4365;SDS011;2196;47.422;9.656;2022-07-11T12:20:35;0.70;;;0.70;;
4365;SDS011;2196;47.422;9.656;2022-07-11T12:23:03;2.97;;;0.83;;
4365;SDS011;2196;47.422;9.656;2022-07-11T12:25:33;0.60;;;0.60;;
4365;SDS011;2196;47.422;9.656;2022-07-11T12:28:00;0.90;;;0.90;;
4365;SDS011;2196;47.422;9.656;2022-07-11T12:30:28;1.17;;;0.60;;
4365;SDS011;2196;47.422;9.656;2022-07-11T12:33:02;1.13;;;0.57;;
4365;SDS011;2196;47.422;9.656;2022-07-11T12:35:34;0.77;;;0.60;;
4365;SDS011;2196;47.422;9.656;2022-07-11T12:38:01;1.13;;;0.90;;
4365;SDS011;2196;47.422;9.656;2022-07-11T12:40:28;1.47;;;0.80;;
4365;SDS011;2196;47.422;9.656;2022-07-11T12:42:57;2.00;;;1.13;;
4365;SDS011;2196;47.422;9.656;2022-07-11T12:45:24;1.43;;;0.50;;
4365;SDS011;2196;47.422;9.656;2022-07-11T12:47:50;0.60;;;0.60;;
4365;SDS011;2196;47.422;9.656;2022-07-11T12:50:20;3.37;;;0.67;;
4365;SDS011;2196;47.422;9.656;2022-07-11T12:52:49;2.50;;;0.83;;
4365;SDS011;2196;47.422;9.656;2022-07-11T12:55:21;2.83;;;0.70;;
4365;SDS011;2196;47.422;9.656;2022-07-11T12:58:04;1.17;;;0.70;;
4365;SDS011;2196;47.422;9.656;2022-07-11T13:00:32;0.50;;;0.50;;
4365;SDS011;2196;47.422;9.656;2022-07-11T13:03:01;1.17;;;0.50;;
4365;SDS011;2196;47.422;9.656;2022-07-11T13:05:29;0.87;;;0.80;;
4365;SDS011;2196;47.422;9.656;2022-07-11T13:07:56;0.50;;;0.50;;
4365;SDS011;2196;47.422;9.656;2022-07-11T13:10:41;0.87;;;0.50;;
4365;SDS011;2196;47.422;9.656;2022-07-11T13:13:18;0.40;;;0.40;;
4365;SDS011;2196;47.422;9.656;2022-07-11T13:15:46;1.53;;;0.40;;
4365;SDS011;2196;47.422;9.656;2022-07-11T13:18:15;0.73;;;0.70;;
4365;SDS011;2196;47.422;9.656;2022-07-11T13:20:42;0.53;;;0.47;;
4365;SDS011;2196;47.422;9.656;2022-07-11T13:23:12;1.60;;;0.40;;
4365;SDS011;2196;47.422;9.656;2022-07-11T13:25:39;1.03;;;0.50;;
4365;SDS011;2196;47.422;9.656;2022-07-11T13:28:07;1.00;;;0.60;;
4365;SDS011;2196;47.422;9.656;2022-07-11T13:30:37;0.50;;;0.50;;
4365;SDS011;2196;47.422;9.656;2022-07-11T13:33:04;0.40;;;0.40;;
4365;SDS011;2196;47.422;9.656;2022-07-11T13:35:32;1.60;;;0.67;;
4365;SDS011;2196;47.422;9.656;2022-07-11T13:37:59;2.93;;;0.40;;
4365;SDS011;2196;47.422;9.656;2022-07-11T13:40:26;0.57;;;0.50;;
4365;SDS011;2196;47.422;9.656;2022-07-11T13:42:53;2.67;;;0.50;;
4365;SDS011;2196;47.422;9.656;2022-07-11T13:45:21;1.03;;;0.40;;
4365;SDS011;2196;47.422;9.656;2022-07-11T13:47:50;0.30;;;0.30;;
4365;SDS011;2196;47.422;9.656;2022-07-11T13:50:17;0.70;;;0.50;;
4365;SDS011;2196;47.422;9.656;2022-07-11T13:52:46;0.40;;;0.40;;
4365;SDS011;2196;47.422;9.656;2022-07-11T13:55:13;1.10;;;0.40;;
4365;SDS011;2196;47.422;9.656;2022-07-11T13:57:40;1.40;;;0.50;;
4365;SDS011;2196;47.422;9.656;2022-07-11T14:00:08;1.97;;;0.40;;
4365;SDS011;2196;47.422;9.656;2022-07-11T14:02:36;2.67;;;0.60;;
4365;SDS011;2196;47.422;9.656;2022-07-11T14:05:04;0.30;;;0.30;;
4365;SDS011;2196;47.422;9.656;2022-07-11T14:07:32;1.20;;;0.30;;
4365;SDS011;2196;47.422;9.656;2022-07-11T14:09:59;0.60;;;0.60;;
4365;SDS011;2196;47.422;9.656;2022-07-11T14:12:26;0.30;;;0.30;;
4365;SDS011;2196;47.422;9.656;2022-07-11T14:14:54;0.27;;;0.27;;
4365;SDS011;2196;47.422;9.656;2022-07-11T14:17:21;0.30;;;0.30;;
4365;SDS011;2196;47.422;9.656;2022-07-11T14:19:50;0.30;;;0.30;;
4365;SDS011;2196;47.422;9.656;2022-07-11T14:22:18;0.20;;;0.20;;
4365;SDS011;2196;47.422;9.656;2022-07-11T14:24:46;0.30;;;0.30;;
4365;SDS011;2196;47.422;9.656;2022-07-11T14:27:14;2.03;;;0.27;;
4365;SDS011;2196;47.422;9.656;2022-07-11T14:29:42;3.10;;;0.30;;
4365;SDS011;2196;47.422;9.656;2022-07-11T14:32:09;0.50;;;0.50;;
4365;SDS011;2196;47.422;9.656;2022-07-11T14:34:38;0.47;;;0.47;;
4365;SDS011;2196;47.422;9.656;2022-07-11T14:37:05;0.23;;;0.20;;
4365;SDS011;2196;47.422;9.656;2022-07-11T14:39:34;1.10;;;0.30;;
4365;SDS011;2196;47.422;9.656;2022-07-11T14:42:00;0.77;;;0.60;;
4365;SDS011;2196;47.422;9.656;2022-07-11T14:44:28;1.27;;;0.37;;
4365;SDS011;2196;47.422;9.656;2022-07-11T14:46:55;0.30;;;0.30;;
4365;SDS011;2196;47.422;9.656;2022-07-11T14:49:22;0.30;;;0.20;;
4365;SDS011;2196;47.422;9.656;2022-07-11T14:51:48;2.37;;;0.20;;
4365;SDS011;2196;47.422;9.656;2022-07-11T14:54:16;1.37;;;0.23;;
4365;SDS011;2196;47.422;9.656;2022-07-11T14:56:44;2.10;;;1.03;;
4365;SDS011;2196;47.422;9.656;2022-07-11T14:59:11;1.10;;;0.30;;
4365;SDS011;2196;47.422;9.656;2022-07-11T15:01:38;0.60;;;0.20;;
4365;SDS011;2196;47.422;9.656;2022-07-11T15:04:05;0.30;;;0.30;;
4365;SDS011;2196;47.422;9.656;2022-07-11T15:06:32;0.63;;;0.37;;
4365;SDS011;2196;47.422;9.656;2022-07-11T15:09:13;0.67;;;0.30;;
4365;SDS011;2196;47.422;9.656;2022-07-11T15:11:58;0.30;;;0.30;;
4365;SDS011;2196;47.422;9.656;2022-07-11T15:14:43;1.00;;;0.30;;
4365;SDS011;2196;47.422;9.656;2022-07-11T15:17:10;0.57;;;0.57;;
4365;SDS011;2196;47.422;9.656;2022-07-11T15:19:37;0.30;;;0.30;;
4365;SDS011;2196;47.422;9.656;2022-07-11T15:22:04;1.57;;;0.33;;
4365;SDS011;2196;47.422;9.656;2022-07-11T15:24:31;0.20;;;0.20;;
4365;SDS011;2196;47.422;9.656;2022-07-11T15:27:00;1.53;;;0.20;;
4365;SDS011;2196;47.422;9.656;2022-07-11T15:29:27;0.73;;;0.40;;
4365;SDS011;2196;47.422;9.656;2022-07-11T15:31:54;0.80;;;0.30;;